Time;durP1;ratioP1;P1;durP2;ratioP2;P2;SDS_P1;SDS_P2;PMS_P1;PMS_P2;Temp;Humidity;BMP_temperature;BMP_pressure;BME280_temperature;BME280_humidity;BME280_pressure;Samples;Min_cycle;Max_cycle;Signal;HPM_P1;HPM_P2
2022/12/02 00:02:29;;;;;;;60.40;32.97;;;;;;;0.87;100.00;102878.13;4987527;28;20219;-45
2022/12/02 00:04:58;;;;;;;58.30;32.35;;;;;;;0.83;100.00;102868.31;4989431;28;20595;-47
2022/12/02 00:07:23;;;;;;;66.35;34.80;;;;;;;0.86;100.00;102870.19;4989833;28;20695;-47
2022/12/02 00:09:49;;;;;;;62.50;31.98;;;;;;;0.74;100.00;102874.16;4989816;28;20296;-48
2022/12/02 00:12:23;;;;;;;65.35;33.38;;;;;;;0.77;100.00;102866.38;4988977;28;20206;-49
2022/12/02 00:15:02;;;;;;;62.50;33.42;;;;;;;0.76;100.00;102872.47;4987236;28;20768;-47
2022/12/02 00:17:28;;;;;;;61.88;34.53;;;;;;;0.80;100.00;102869.09;4987964;28;20176;-46
2022/12/02 00:19:53;;;;;;;64.65;34.97;;;;;;;0.75;100.00;102865.41;4989448;28;20209;-47
2022/12/02 00:22:19;;;;;;;63.10;32.65;;;;;;;0.79;100.00;102856.78;4988546;28;20568;-48
2022/12/02 00:24:45;;;;;;;64.72;34.80;;;;;;;0.86;100.00;102857.00;4989203;28;20605;-47
2022/12/02 00:27:11;;;;;;;70.68;34.00;;;;;;;0.87;100.00;102857.03;4989004;28;20185;-46
2022/12/02 00:29:36;;;;;;;64.43;34.90;;;;;;;0.88;100.00;102855.31;4989889;28;20598;-46
2022/12/02 00:32:02;;;;;;;63.83;33.88;;;;;;;0.92;100.00;102857.16;4989300;28;20211;-46
2022/12/02 00:34:27;;;;;;;65.25;34.53;;;;;;;0.89;100.00;102846.53;4988134;28;20185;-46
2022/12/02 00:36:53;;;;;;;69.15;35.03;;;;;;;0.86;100.00;102854.34;4989242;28;20185;-46
2022/12/02 00:39:18;;;;;;;66.65;34.60;;;;;;;0.89;100.00;102849.16;4989082;28;20197;-46
2022/12/02 00:41:45;;;;;;;65.78;35.28;;;;;;;0.83;100.00;102863.03;4989557;28;20208;-47
2022/12/02 00:46:55;;;;;;;70.35;34.45;;;;;;;0.84;100.00;102861.31;4987699;28;20259;-46
2022/12/02 00:49:20;;;;;;;71.80;37.00;;;;;;;0.86;100.00;102854.34;4987900;28;20267;-46
2022/12/02 00:51:46;;;;;;;68.60;35.30;;;;;;;0.86;100.00;102857.88;4988724;28;20260;-46
2022/12/02 00:54:13;;;;;;;66.05;33.33;;;;;;;0.91;100.00;102853.66;4989483;28;20577;-47
2022/12/02 00:56:39;;;;;;;67.07;35.67;;;;;;;0.90;100.00;102853.63;4988219;28;20264;-46
2022/12/02 00:59:05;;;;;;;64.13;35.25;;;;;;;0.96;100.00;102853.81;4989467;28;20220;-46
2022/12/02 01:01:32;;;;;;;68.38;35.10;;;;;;;0.99;100.00;102843.38;4990925;28;20291;-47
2022/12/02 01:03:57;;;;;;;69.13;35.08;;;;;;;0.78;100.00;102846.16;4992711;28;20201;-45
2022/12/02 01:06:23;;;;;;;65.65;35.20;;;;;;;0.80;100.00;102855.03;4992426;28;20180;-46
2022/12/02 01:08:49;;;;;;;61.13;33.88;;;;;;;0.92;100.00;102843.97;4991165;28;20329;-46
2022/12/02 01:11:15;;;;;;;59.38;33.80;;;;;;;1.02;100.00;102836.44;4991000;28;20205;-46
2022/12/02 01:13:41;;;;;;;65.10;35.00;;;;;;;1.00;100.00;102838.13;4992941;28;20194;-46
2022/12/02 01:16:07;;;;;;;72.95;36.80;;;;;;;0.88;100.00;102834.19;4992152;28;20185;-47
2022/12/02 01:18:33;;;;;;;70.60;36.75;;;;;;;0.85;100.00;102834.06;4989794;28;20249;-45
2022/12/02 01:20:58;;;;;;;70.70;35.38;;;;;;;0.90;100.00;102832.50;4992239;28;20629;-45
2022/12/02 01:23:24;;;;;;;69.45;35.58;;;;;;;0.96;100.00;102838.88;4991898;28;20193;-47
2022/12/02 01:25:50;;;;;;;66.10;34.65;;;;;;;1.05;100.00;102835.66;4990589;28;20173;-48
2022/12/02 01:28:16;;;;;;;70.60;37.03;;;;;;;1.09;100.00;102845.44;4992417;28;20585;-46
2022/12/02 01:30:42;;;;;;;68.05;35.95;;;;;;;0.98;100.00;102836.28;4992367;28;20660;-47
2022/12/02 01:33:07;;;;;;;67.72;36.15;;;;;;;0.94;100.00;102842.28;4991090;28;20233;-47
2022/12/02 01:35:33;;;;;;;67.75;37.42;;;;;;;0.96;100.00;102840.59;4992020;28;20224;-47
2022/12/02 01:37:59;;;;;;;73.43;37.45;;;;;;;0.95;100.00;102844.09;4992605;28;20284;-45
2022/12/02 01:40:25;;;;;;;70.57;36.95;;;;;;;0.84;100.00;102832.28;4989342;28;20185;-45
2022/12/02 01:42:51;;;;;;;66.78;36.15;;;;;;;0.86;100.00;102833.25;4992282;28;20738;-46
2022/12/02 01:45:17;;;;;;;71.80;37.28;;;;;;;0.91;100.00;102840.44;4991722;28;20189;-46
2022/12/02 01:47:43;;;;;;;69.80;36.75;;;;;;;0.93;100.00;102838.75;4990445;28;20177;-46
2022/12/02 01:50:10;;;;;;;76.05;38.55;;;;;;;0.93;100.00;102836.13;4990710;28;20201;-46
2022/12/02 01:52:36;;;;;;;68.15;36.90;;;;;;;0.95;100.00;102844.09;4991677;28;20201;-46
2022/12/02 01:55:05;;;;;;;72.18;36.78;;;;;;;0.96;100.00;102848.53;4973799;28;20197;-47
2022/12/02 01:57:31;;;;;;;72.63;36.80;;;;;;;0.90;100.00;102838.66;4990506;28;20177;-47
2022/12/02 01:59:56;;;;;;;68.85;35.35;;;;;;;0.93;100.00;102835.22;4990308;28;20213;-46
2022/12/02 02:02:25;;;;;;;68.93;37.47;;;;;;;1.01;100.00;102832.00;4990495;28;20198;-45
2022/12/02 02:04:53;;;;;;;69.20;36.20;;;;;;;1.06;100.00;102839.19;5004898;28;20220;-47
2022/12/02 02:07:19;;;;;;;71.32;35.40;;;;;;;1.03;100.00;102824.16;4997091;28;20181;-47
2022/12/02 02:09:45;;;;;;;69.50;36.53;;;;;;;1.10;100.00;102833.16;4990657;28;20216;-47
2022/12/02 02:12:11;;;;;;;63.97;35.10;;;;;;;1.14;100.00;102824.50;4989521;28;20668;-47
2022/12/02 02:14:36;;;;;;;70.47;35.33;;;;;;;1.15;100.00;102827.16;4991797;28;20177;-47
2022/12/02 02:17:02;;;;;;;66.40;34.95;;;;;;;1.23;100.00;102830.97;4991042;28;20635;-45
2022/12/02 02:19:27;;;;;;;70.82;35.97;;;;;;;1.19;100.00;102829.06;4989788;28;20205;-46
2022/12/02 02:21:56;;;;;;;59.38;32.42;;;;;;;1.20;100.00;102817.69;4989687;28;20205;-45
2022/12/02 02:24:23;;;;;;;62.78;32.90;;;;;;;1.08;100.00;102819.91;4989543;28;20645;-46
2022/12/02 02:26:49;;;;;;;62.17;33.50;;;;;;;1.14;100.00;102817.47;4989483;28;20193;-47
2022/12/02 02:29:15;;;;;;;61.35;32.90;;;;;;;1.14;100.00;102812.19;4989459;28;20251;-46
2022/12/02 02:31:41;;;;;;;63.08;34.30;;;;;;;1.11;100.00;102821.75;4989837;28;20272;-46
2022/12/02 02:34:08;;;;;;;63.35;33.20;;;;;;;1.14;100.00;102827.16;4989649;28;20570;-48
2022/12/02 02:36:34;;;;;;;55.90;31.08;;;;;;;1.19;100.00;102822.91;4982603;28;20251;-46
2022/12/02 02:39:01;;;;;;;64.43;32.47;;;;;;;1.19;100.00;102815.88;4990391;28;20197;-46
2022/12/02 02:41:27;;;;;;;63.17;34.03;;;;;;;1.23;100.00;102809.84;4989011;28;20288;-45
2022/12/02 02:43:54;;;;;;;60.75;31.42;;;;;;;1.30;100.00;102812.69;4991185;28;20291;-48
2022/12/02 02:46:20;;;;;;;61.60;32.35;;;;;;;1.19;100.00;102809.69;4989951;28;20181;-42
2022/12/02 02:48:47;;;;;;;61.50;33.38;;;;;;;1.25;100.00;102801.97;4991838;28;20197;-49
2022/12/02 02:51:13;;;;;;;58.08;33.92;;;;;;;1.24;100.00;102808.97;4992068;28;20727;-46
2022/12/02 02:53:40;;;;;;;53.20;30.77;;;;;;;1.20;100.00;102811.47;4990522;28;20182;-43
2022/12/02 02:56:08;;;;;;;57.50;31.05;;;;;;;1.20;100.00;102819.41;4990513;28;20256;-43
2022/12/02 02:58:35;;;;;;;61.22;33.80;;;;;;;1.13;100.00;102820.06;4990337;28;20232;-44
2022/12/02 03:01:10;;;;;;;60.45;32.03;;;;;;;1.12;100.00;102811.25;4989921;28;20205;-42
2022/12/02 03:03:43;;;;;;;58.78;30.98;;;;;;;1.04;100.00;102812.72;4987331;28;20202;-42
2022/12/02 03:06:11;;;;;;;56.47;30.20;;;;;;;1.07;100.00;102804.00;4976515;28;20190;-42
2022/12/02 03:08:40;;;;;;;53.95;30.08;;;;;;;1.09;100.00;102805.84;5001160;28;20224;-42
2022/12/02 03:11:07;;;;;;;53.05;29.90;;;;;;;1.12;100.00;102813.88;4987208;28;20192;-41
2022/12/02 03:13:36;;;;;;;54.75;30.48;;;;;;;1.15;100.00;102805.16;4989946;28;20621;-47
2022/12/02 03:16:05;;;;;;;50.45;28.45;;;;;;;1.08;100.00;102806.72;4988306;28;20230;-43
2022/12/02 03:18:31;;;;;;;53.35;28.73;;;;;;;1.05;100.00;102806.63;4990221;28;20205;-41
2022/12/02 03:20:57;;;;;;;52.45;30.05;;;;;;;1.06;100.00;102800.47;4990281;28;20288;-42
2022/12/02 03:23:23;;;;;;;54.25;27.92;;;;;;;1.08;100.00;102793.50;4989901;28;20271;-45
2022/12/02 03:25:49;;;;;;;47.38;26.92;;;;;;;1.10;100.00;102797.09;4989565;28;20213;-44
2022/12/02 03:28:15;;;;;;;49.85;27.95;;;;;;;1.15;100.00;102787.56;4990451;28;20209;-43
2022/12/02 03:30:41;;;;;;;51.17;28.35;;;;;;;1.12;100.00;102794.53;4990323;28;20192;-44
2022/12/02 03:33:07;;;;;;;49.13;27.90;;;;;;;1.13;100.00;102794.53;4988792;28;20280;-42
2022/12/02 03:35:33;;;;;;;50.45;27.20;;;;;;;1.04;100.00;102788.97;4990113;28;20614;-43
2022/12/02 03:37:59;;;;;;;54.13;28.63;;;;;;;1.05;100.00;102797.78;4987133;28;20212;-42
2022/12/02 03:40:25;;;;;;;52.58;28.42;;;;;;;1.05;100.00;102790.78;4990192;28;20582;-42
2022/12/02 03:42:51;;;;;;;50.42;27.35;;;;;;;0.98;100.00;102786.13;4988092;28;20196;-43
2022/12/02 03:45:17;;;;;;;50.90;27.77;;;;;;;0.91;100.00;102790.31;4990398;28;20185;-43
2022/12/02 03:47:43;;;;;;;49.33;28.77;;;;;;;0.93;100.00;102790.38;4990030;28;20511;-42
2022/12/02 03:50:10;;;;;;;50.25;27.70;;;;;;;0.82;100.00;102790.00;4990108;28;20251;-41
2022/12/02 03:52:36;;;;;;;48.35;27.30;;;;;;;0.81;100.00;102793.50;4990269;28;20197;-46
2022/12/02 03:55:02;;;;;;;51.45;28.48;;;;;;;0.77;100.00;102789.84;4989936;28;20578;-42
2022/12/02 03:57:31;;;;;;;54.83;29.08;;;;;;;0.77;100.00;102787.22;4990455;28;20558;-44
2022/12/02 03:59:56;;;;;;;48.17;27.80;;;;;;;0.76;100.00;102781.88;4989871;28;20241;-41
2022/12/02 04:02:22;;;;;;;55.83;29.75;;;;;;;0.78;100.00;102786.34;4990198;28;20526;-43
2022/12/02 04:04:47;;;;;;;52.25;28.48;;;;;;;0.69;100.00;102778.16;4990322;28;20223;-42
2022/12/02 04:07:13;;;;;;;51.63;28.88;;;;;;;0.67;100.00;102787.75;4989430;28;20221;-43
2022/12/02 04:09:38;;;;;;;52.80;28.90;;;;;;;0.67;100.00;102782.47;4989550;28;20692;-42
2022/12/02 04:12:04;;;;;;;56.33;28.92;;;;;;;0.66;100.00;102777.16;4989994;28;20204;-43
2022/12/02 04:14:29;;;;;;;55.78;30.88;;;;;;;0.60;100.00;102785.75;4989959;28;20675;-42
2022/12/02 04:16:55;;;;;;;57.75;31.95;;;;;;;0.59;100.00;102781.31;4989821;28;20251;-42
2022/12/02 04:19:20;;;;;;;62.03;32.22;;;;;;;0.68;100.00;102784.28;4989858;28;20696;-43
2022/12/02 04:21:46;;;;;;;56.03;31.25;;;;;;;0.60;100.00;102785.75;4990102;28;20197;-44
2022/12/02 04:24:12;;;;;;;59.80;32.35;;;;;;;0.53;100.00;102778.47;4988395;28;20264;-43
2022/12/02 04:26:37;;;;;;;62.42;33.58;;;;;;;0.50;100.00;102786.28;4989670;28;20185;-44
2022/12/02 04:29:04;;;;;;;62.13;32.53;;;;;;;0.56;100.00;102795.28;4989799;28;20224;-44
2022/12/02 04:31:30;;;;;;;64.45;33.72;;;;;;;0.57;100.00;102786.56;4989241;28;20181;-43
2022/12/02 04:33:55;;;;;;;62.17;33.78;;;;;;;0.59;100.00;102776.03;4991117;28;20564;-44
2022/12/02 04:36:21;;;;;;;61.40;33.13;;;;;;;0.49;100.00;102766.91;4991935;28;20208;-43
2022/12/02 04:38:46;;;;;;;69.22;35.05;;;;;;;0.46;100.00;102779.09;4992061;28;20243;-45
2022/12/02 04:41:12;;;;;;;59.50;30.98;;;;;;;0.60;100.00;102776.09;4993639;28;20983;-43
2022/12/02 04:43:37;;;;;;;61.03;32.05;;;;;;;0.58;100.00;102782.16;4993619;28;20616;-43
2022/12/02 04:46:03;;;;;;;59.60;30.25;;;;;;;0.49;100.00;102784.50;4992337;28;20205;-43
2022/12/02 04:48:28;;;;;;;63.30;32.40;;;;;;;0.44;100.00;102784.34;4992301;28;20547;-42
2022/12/02 04:50:54;;;;;;;57.95;30.40;;;;;;;0.44;100.00;102778.13;4993419;28;20197;-45
2022/12/02 04:53:19;;;;;;;55.63;30.20;;;;;;;0.35;100.00;102782.28;4992891;28;20193;-44
2022/12/02 04:55:45;;;;;;;56.20;28.65;;;;;;;0.32;100.00;102779.50;4993017;28;20684;-42
2022/12/02 04:58:11;;;;;;;59.10;30.30;;;;;;;0.22;100.00;102782.69;4992244;28;20227;-41
2022/12/02 05:00:37;;;;;;;56.38;29.80;;;;;;;0.30;100.00;102781.19;4991788;28;20602;-41
2022/12/02 05:03:02;;;;;;;53.67;27.40;;;;;;;0.47;100.00;102780.91;4992476;28;20189;-40
2022/12/02 05:05:28;;;;;;;55.72;29.80;;;;;;;0.45;100.00;102779.94;4992825;28;20192;-44
2022/12/02 05:07:54;;;;;;;55.75;29.45;;;;;;;0.43;100.00;102782.53;4993055;28;20185;-42
2022/12/02 05:10:19;;;;;;;56.08;28.95;;;;;;;0.44;100.00;102780.78;4994557;28;20177;-42
2022/12/02 05:12:45;;;;;;;57.85;30.02;;;;;;;0.43;100.00;102771.97;4993042;28;20182;-42
2022/12/02 05:15:10;;;;;;;56.28;29.42;;;;;;;0.46;100.00;102781.72;4992641;28;20182;-44
2022/12/02 05:17:36;;;;;;;55.83;30.02;;;;;;;0.37;100.00;102777.03;4993024;28;20192;-46
2022/12/02 05:20:01;;;;;;;54.40;29.10;;;;;;;0.39;100.00;102776.25;4992743;28;20707;-46
2022/12/02 05:22:27;;;;;;;58.38;29.55;;;;;;;0.32;100.00;102776.88;4992700;28;20223;-43
2022/12/02 05:24:52;;;;;;;58.88;30.45;;;;;;;0.30;100.00;102777.66;4992391;28;20185;-43
2022/12/02 05:27:18;;;;;;;53.63;29.80;;;;;;;0.42;100.00;102786.03;4992982;28;20216;-45
2022/12/02 05:29:44;;;;;;;56.75;29.35;;;;;;;0.33;100.00;102770.78;4992538;28;20210;-42
2022/12/02 05:32:09;;;;;;;60.85;29.83;;;;;;;0.41;100.00;102778.94;4992089;28;20181;-46
2022/12/02 05:34:35;;;;;;;54.78;29.80;;;;;;;0.44;100.00;102779.06;4991779;28;20185;-44
2022/12/02 05:37:01;;;;;;;54.53;29.10;;;;;;;0.42;100.00;102775.47;4990897;28;20291;-44
2022/12/02 05:39:26;;;;;;;57.92;30.75;;;;;;;0.35;100.00;102770.81;4992474;28;20263;-43
2022/12/02 05:41:54;;;;;;;54.05;29.42;;;;;;;0.42;100.00;102778.09;4992385;28;20499;-43
2022/12/02 05:44:21;;;;;;;58.92;31.20;;;;;;;0.33;100.00;102780.44;4973839;28;20189;-45
2022/12/02 05:46:47;;;;;;;61.03;29.80;;;;;;;0.36;100.00;102772.63;4992358;28;20235;-44
2022/12/02 05:49:19;;;;;;;61.78;30.02;;;;;;;0.36;100.00;102786.69;4992120;28;20221;-43
2022/12/02 05:51:53;;;;;;;61.55;31.15;;;;;;;0.43;100.00;102779.88;4991879;28;20193;-44
2022/12/02 05:54:19;;;;;;;60.38;31.70;;;;;;;0.39;100.00;102786.81;4981847;28;20492;-42
2022/12/02 05:56:46;;;;;;;62.42;32.17;;;;;;;0.36;100.00;102784.06;4991347;28;20197;-44
2022/12/02 05:59:15;;;;;;;60.22;32.08;;;;;;;0.42;100.00;102786.03;4992268;28;20213;-43
2022/12/02 06:01:41;;;;;;;60.88;31.83;;;;;;;0.34;100.00;102793.63;4991788;28;20680;-43
2022/12/02 06:04:15;;;;;;;56.83;29.60;;;;;;;0.34;100.00;102798.91;4992172;28;20197;-44
2022/12/02 06:06:41;;;;;;;61.33;30.55;;;;;;;0.40;100.00;102792.97;4991442;28;20582;-44
2022/12/02 06:09:16;;;;;;;64.97;33.45;;;;;;;0.44;100.00;102794.88;4991921;28;20232;-44
2022/12/02 06:11:43;;;;;;;64.22;31.42;;;;;;;0.44;100.00;102794.88;4991901;28;20192;-41
2022/12/02 06:14:14;;;;;;;61.63;30.00;;;;;;;0.51;100.00;102798.63;4992186;28;20212;-43
2022/12/02 06:16:43;;;;;;;67.38;32.45;;;;;;;0.50;100.00;102791.53;4991917;28;20197;-47
2022/12/02 06:19:23;;;;;;;64.95;32.55;;;;;;;0.48;100.00;102799.44;4978241;28;20210;-43
2022/12/02 06:21:49;;;;;;;64.22;31.60;;;;;;;0.55;100.00;102798.78;4991890;28;20283;-43
2022/12/02 06:24:15;;;;;;;67.85;32.60;;;;;;;0.47;100.00;102808.16;4991444;28;20193;-45
2022/12/02 06:26:40;;;;;;;62.95;31.02;;;;;;;0.60;100.00;102804.22;4991195;28;20232;-43
2022/12/02 06:29:14;;;;;;;63.72;31.30;;;;;;;0.58;100.00;102814.69;4991420;28;20213;-43
2022/12/02 06:31:42;;;;;;;61.00;30.80;;;;;;;0.56;100.00;102815.50;4991283;28;20549;-45
2022/12/02 06:34:37;;;;;;;60.42;31.08;;;;;;;0.69;100.00;102815.06;4991324;28;20185;-44
2022/12/02 06:37:29;;;;;;;60.80;30.30;;;;;;;0.75;100.00;102809.13;4989031;28;20209;-42
2022/12/02 06:39:58;;;;;;;61.28;32.33;;;;;;;0.62;100.00;102821.00;4985924;28;20232;-41
2022/12/02 06:42:31;;;;;;;59.35;31.25;;;;;;;0.69;100.00;102815.06;4991056;28;20217;-44
2022/12/02 06:45:21;;;;;;;56.67;29.42;;;;;;;0.78;100.00;102822.41;4990798;28;20664;-43
2022/12/02 06:48:23;;;;;;;59.85;32.08;;;;;;;0.77;100.00;102833.81;4990423;28;20433;-45
2022/12/02 06:50:49;;;;;;;56.55;30.60;;;;;;;0.86;100.00;102823.56;4985334;28;20208;-43
2022/12/02 06:53:34;;;;;;;53.10;30.45;;;;;;;0.92;100.00;102830.78;4992627;28;20675;-43
2022/12/02 06:56:04;;;;;;;59.33;30.60;;;;;;;0.85;100.00;102836.72;4989398;28;20213;-42
2022/12/02 06:58:59;;;;;;;62.35;32.30;;;;;;;0.84;100.00;102846.38;5004372;28;20301;-45
2022/12/02 07:01:27;;;;;;;62.00;32.22;;;;;;;0.84;100.00;102850.75;4988947;28;20316;-45
2022/12/02 07:04:02;;;;;;;62.58;32.08;;;;;;;0.89;100.00;102849.16;4990481;28;20632;-44
2022/12/02 07:06:29;;;;;;;64.72;32.67;;;;;;;0.80;100.00;102858.56;4989248;28;20192;-43
2022/12/02 07:09:01;;;;;;;61.40;32.05;;;;;;;0.90;100.00;102858.91;4992089;28;20204;-44
2022/12/02 07:11:49;;;;;;;71.63;33.30;;;;;;;0.80;100.00;102858.56;4990741;28;20209;-45
2022/12/02 07:14:43;;;;;;;63.53;32.40;;;;;;;0.78;100.00;102857.59;4990215;28;20185;-43
2022/12/02 07:17:17;;;;;;;64.13;32.75;;;;;;;0.79;100.00;102851.50;4989492;28;20186;-43
2022/12/02 07:19:45;;;;;;;57.28;31.40;;;;;;;0.78;100.00;102849.69;4990072;28;20212;-43
2022/12/02 07:22:17;;;;;;;61.53;31.85;;;;;;;0.84;100.00;102853.41;4989194;28;20213;-43
2022/12/02 07:24:56;;;;;;;67.75;32.50;;;;;;;0.75;100.00;102836.41;4988618;28;20699;-44
2022/12/02 07:27:25;;;;;;;64.00;32.92;;;;;;;0.74;100.00;102839.88;4988319;28;20559;-42
2022/12/02 07:29:53;;;;;;;65.00;32.95;;;;;;;0.76;100.00;102853.13;4990238;28;20584;-42
2022/12/02 07:32:18;;;;;;;67.57;32.88;;;;;;;0.75;100.00;102852.22;4991081;28;20181;-43
2022/12/02 07:34:44;;;;;;;65.68;32.45;;;;;;;0.79;100.00;102848.84;4984717;28;20212;-42
2022/12/02 07:37:09;;;;;;;66.25;33.25;;;;;;;0.81;100.00;102854.19;4988683;28;20244;-48
2022/12/02 07:39:35;;;;;;;69.82;33.17;;;;;;;0.86;100.00;102860.53;4988324;28;20263;-50
2022/12/02 07:42:01;;;;;;;65.22;32.60;;;;;;;0.79;100.00;102858.53;4989349;28;20680;-48
2022/12/02 07:44:26;;;;;;;65.35;33.78;;;;;;;0.79;100.00;102867.31;4989553;28;20196;-50
2022/12/02 07:46:52;;;;;;;61.22;32.05;;;;;;;0.88;100.00;102852.66;4989203;28;20295;-49
2022/12/02 07:49:18;;;;;;;65.45;32.55;;;;;;;0.86;100.00;102857.00;4989683;28;20275;-50
2022/12/02 07:51:43;;;;;;;69.63;32.42;;;;;;;0.79;100.00;102866.44;4987910;28;20189;-50
2022/12/02 07:54:08;;;;;;;68.43;32.88;;;;;;;0.74;100.00;102860.97;4989559;28;20199;-48
2022/12/02 07:56:34;;;;;;;70.38;32.45;;;;;;;0.83;100.00;102857.75;4988915;28;20558;-48
2022/12/02 07:59:01;;;;;;;67.55;32.30;;;;;;;0.88;100.00;102858.84;4987941;28;20259;-49
2022/12/02 08:01:27;;;;;;;65.55;32.53;;;;;;;0.93;100.00;102864.25;4989748;28;20204;-47
2022/12/02 08:03:53;;;;;;;60.70;31.05;;;;;;;0.93;100.00;102862.50;4989383;28;20672;-48
2022/12/02 08:06:18;;;;;;;64.65;31.80;;;;;;;0.94;100.00;102858.13;4989719;28;20188;-47
2022/12/02 08:08:44;;;;;;;71.40;33.40;;;;;;;0.80;100.00;102866.47;4989015;28;20212;-48
2022/12/02 08:11:09;;;;;;;61.78;32.47;;;;;;;0.88;100.00;102850.03;4994591;28;20181;-50
2022/12/02 08:13:35;;;;;;;74.25;34.45;;;;;;;0.94;100.00;102859.03;4994325;28;20277;-49
2022/12/02 08:16:00;;;;;;;64.68;33.10;;;;;;;0.89;100.00;102862.38;4991604;28;20582;-50
2022/12/02 08:18:26;;;;;;;66.38;34.10;;;;;;;0.96;100.00;102865.28;4993213;28;20212;-50
2022/12/02 08:20:52;;;;;;;68.20;33.47;;;;;;;1.03;100.00;102862.00;4992007;28;20667;-48
2022/12/02 08:23:17;;;;;;;75.50;34.75;;;;;;;1.01;100.00;102858.41;4990929;28;20185;-48
2022/12/02 08:25:43;;;;;;;66.55;33.75;;;;;;;1.09;100.00;102860.41;4991812;28;20251;-50
2022/12/02 08:28:08;;;;;;;65.72;31.55;;;;;;;1.14;100.00;102859.72;4993110;28;20213;-50
2022/12/02 08:30:34;;;;;;;64.88;31.65;;;;;;;1.16;100.00;102865.94;4992826;28;20212;-50
2022/12/02 08:32:59;;;;;;;67.90;31.65;;;;;;;1.15;100.00;102866.78;4993491;28;20648;-48
2022/12/02 08:35:25;;;;;;;59.88;29.75;;;;;;;1.24;100.00;102869.72;4992746;28;20185;-50
2022/12/02 08:37:50;;;;;;;69.13;33.28;;;;;;;1.22;100.00;102873.16;4994958;28;20185;-48
2022/12/02 08:40:16;;;;;;;62.38;32.80;;;;;;;1.23;100.00;102873.22;4993150;28;20201;-50
2022/12/02 08:42:42;;;;;;;63.33;31.05;;;;;;;1.30;100.00;102870.78;4992796;28;20204;-50
2022/12/02 08:45:08;;;;;;;70.07;33.53;;;;;;;1.27;100.00;102873.31;4991315;28;20184;-48
2022/12/02 08:47:34;;;;;;;62.22;31.33;;;;;;;1.30;100.00;102876.06;4991773;28;20185;-50
2022/12/02 08:50:00;;;;;;;66.45;31.67;;;;;;;1.35;100.00;102863.91;4991994;28;20251;-49
2022/12/02 08:52:25;;;;;;;67.78;34.28;;;;;;;1.32;100.00;102874.38;4992731;28;20602;-49
2022/12/02 08:54:51;;;;;;;63.42;31.88;;;;;;;1.34;100.00;102873.56;4993188;28;20219;-48
2022/12/02 08:57:16;;;;;;;66.82;32.50;;;;;;;1.35;100.00;102880.63;4987872;28;20532;-47
2022/12/02 08:59:42;;;;;;;63.10;31.50;;;;;;;1.35;100.00;102875.34;4990611;28;20336;-48
2022/12/02 09:02:07;;;;;;;63.85;30.75;;;;;;;1.42;100.00;102880.00;5014593;22;20212;-47
2022/12/02 09:04:33;;;;;;;64.00;32.38;;;;;;;1.45;100.00;102876.56;5002128;28;20311;-46
2022/12/02 09:06:58;;;;;;;58.75;31.35;;;;;;;1.53;100.00;102875.06;5011253;28;20357;-46
2022/12/02 09:09:24;;;;;;;64.53;32.10;;;;;;;1.58;100.00;102873.47;5006558;28;20201;-45
2022/12/02 09:11:49;;;;;;;61.92;32.20;;;;;;;1.58;100.00;102875.22;5000777;28;20189;-46
2022/12/02 09:14:15;;;;;;;65.82;32.85;;;;;;;1.60;100.00;102866.47;5011943;28;20199;-48
2022/12/02 09:16:40;;;;;;;67.82;32.38;;;;;;;1.59;100.00;102875.25;5002946;28;20222;-47
2022/12/02 09:19:06;;;;;;;55.65;29.80;;;;;;;1.69;100.00;102865.00;4999202;28;20201;-48
2022/12/02 09:21:31;;;;;;;67.05;33.00;;;;;;;1.67;100.00;102869.31;5001620;28;20192;-48
2022/12/02 09:23:57;;;;;;;64.25;31.77;;;;;;;1.72;100.00;102868.59;5002304;28;20654;-47
2022/12/02 09:26:22;;;;;;;60.72;30.67;;;;;;;1.74;100.00;102868.66;5002102;28;20180;-48
2022/12/02 09:28:48;;;;;;;54.50;29.00;;;;;;;1.77;100.00;102869.66;5000472;28;20205;-48
2022/12/02 09:31:14;;;;;;;66.32;34.58;;;;;;;1.74;100.00;102887.16;4996698;28;20196;-47
2022/12/02 09:33:39;;;;;;;85.65;43.70;;;;;;;1.79;100.00;102870.59;5000486;28;20191;-47
2022/12/02 09:36:05;;;;;;;92.90;46.60;;;;;;;1.87;100.00;102873.47;4997849;28;20193;-47
2022/12/02 09:38:31;;;;;;;103.03;48.80;;;;;;;1.91;100.00;102877.13;4995741;28;20224;-47
2022/12/02 09:41:00;;;;;;;81.20;42.45;;;;;;;1.97;100.00;102880.84;5012294;28;20235;-47
2022/12/02 09:43:27;;;;;;;68.55;34.55;;;;;;;1.94;100.00;102878.09;4994612;28;20214;-47
2022/12/02 09:45:53;;;;;;;59.40;32.75;;;;;;;2.00;100.00;102869.44;4994846;28;20177;-47
2022/12/02 09:48:19;;;;;;;60.85;30.45;;;;;;;1.96;100.00;102884.31;4993206;28;20225;-48
2022/12/02 09:50:45;;;;;;;63.92;31.65;;;;;;;2.02;100.00;102883.63;4997169;28;20189;-47
2022/12/02 09:53:14;;;;;;;63.25;32.85;;;;;;;2.02;100.00;102879.22;4995456;28;20188;-49
2022/12/02 09:55:40;;;;;;;64.78;31.55;;;;;;;2.05;100.00;102881.06;5013906;28;20266;-48
2022/12/02 09:58:20;;;;;;;64.20;31.05;;;;;;;2.01;100.00;102877.44;4998413;28;20201;-48
2022/12/02 10:00:49;;;;;;;61.65;30.50;;;;;;;2.02;100.00;102881.88;4997453;28;20181;-46
2022/12/02 10:03:17;;;;;;;55.63;31.27;;;;;;;2.04;100.00;102879.28;4998965;28;20185;-46
2022/12/02 10:05:43;;;;;;;59.17;32.58;;;;;;;2.04;100.00;102872.22;4996191;28;20185;-47
2022/12/02 10:08:22;;;;;;;58.00;30.30;;;;;;;2.02;100.00;102879.22;5004087;28;20287;-47
2022/12/02 10:10:48;;;;;;;57.63;29.38;;;;;;;2.04;100.00;102880.16;4996433;28;20200;-46
2022/12/02 10:13:16;;;;;;;58.97;30.02;;;;;;;1.98;100.00;102874.69;4998092;28;20259;-47
2022/12/02 10:15:43;;;;;;;53.88;28.25;;;;;;;1.97;100.00;102886.13;5002057;28;20243;-47
2022/12/02 10:18:15;;;;;;;53.67;29.13;;;;;;;1.98;100.00;102879.97;5002917;28;20213;-46
2022/12/02 10:20:41;;;;;;;54.13;29.35;;;;;;;2.01;100.00;102882.72;5014065;28;20193;-48
2022/12/02 10:23:14;;;;;;;46.83;26.90;;;;;;;1.98;100.00;102882.63;4994566;28;20568;-48
2022/12/02 10:25:43;;;;;;;48.78;27.17;;;;;;;2.02;100.00;102870.41;4998577;28;20180;-47
2022/12/02 10:28:25;;;;;;;48.25;27.27;;;;;;;2.03;100.00;102870.47;4995461;28;20209;-47
2022/12/02 10:31:00;;;;;;;48.80;27.70;;;;;;;2.08;100.00;102869.66;4998847;28;20190;-48
2022/12/02 10:33:38;;;;;;;45.47;26.55;;;;;;;2.02;100.00;102875.69;4996419;28;20194;-48
2022/12/02 10:36:04;;;;;;;46.90;26.58;;;;;;;2.10;100.00;102876.81;4992620;28;20584;-48
2022/12/02 10:38:30;;;;;;;45.70;26.00;;;;;;;2.14;100.00;102869.84;4993542;28;20209;-47
2022/12/02 10:41:14;;;;;;;42.28;24.00;;;;;;;2.19;100.00;102887.66;4998641;28;20275;-46
2022/12/02 10:44:11;;;;;;;40.08;25.05;;;;;;;2.14;100.00;102878.66;5002793;28;20181;-48
2022/12/02 10:46:36;;;;;;;39.03;24.58;;;;;;;2.19;100.00;102881.47;4994993;28;20192;-46
2022/12/02 10:49:16;;;;;;;45.10;25.55;;;;;;;2.27;100.00;102874.66;4999078;28;20674;-46
2022/12/02 10:51:42;;;;;;;36.10;23.17;;;;;;;2.26;100.00;102875.50;4996069;28;20742;-48
2022/12/02 10:54:21;;;;;;;37.75;22.67;;;;;;;2.34;100.00;102870.44;4997546;28;20185;-48
2022/12/02 10:56:47;;;;;;;34.58;23.27;;;;;;;2.36;100.00;102874.94;4995718;28;20181;-47
2022/12/02 10:59:14;;;;;;;36.63;23.70;;;;;;;2.39;100.00;102876.75;4997689;28;20582;-48
2022/12/02 11:01:40;;;;;;;33.25;22.40;;;;;;;2.38;100.00;102872.31;5001010;28;20196;-49
2022/12/02 11:04:14;;;;;;;32.63;22.27;;;;;;;2.43;100.00;102866.31;4997895;28;20279;-47
2022/12/02 11:06:40;;;;;;;30.67;19.83;;;;;;;2.30;100.00;102872.09;4997298;28;20177;-48
2022/12/02 11:09:07;;;;;;;29.08;20.55;;;;;;;2.33;100.00;102868.66;5004277;28;20300;-45
2022/12/02 11:11:32;;;;;;;30.25;21.00;;;;;;;2.28;100.00;102867.63;5009277;28;20180;-46
2022/12/02 11:13:58;;;;;;;31.90;21.67;;;;;;;2.30;100.00;102868.56;5010578;28;20298;-43
2022/12/02 11:16:29;;;;;;;29.33;20.83;;;;;;;2.24;100.00;102864.00;5010592;28;20169;-43